KBEH/BEH METAR and TAF weather

Enter ICAO airport designator
Station Type Date Time Source
KBEH METAR 2021/03/05 00:53 UTC NOAA

KBEH 050053Z AUTO 36005KT 10SM CLR M01/M06 A3033 RMK AO2 SLP281 T10061056


Station Type Date Time Source
KBEH Decoded METAR 2021/03/05 00:53 UTC NOAA

SOUTHWEST MICHIGAN REGIONAL, MI, United States (KBEH) 42-08N 86-25W 191M
Mar 04, 2021 - 07:53 PM EST / 2021.03.05 0053 UTC
Wind: from the N (360 degrees) at 6 MPH (5 KT):0
Visibility: 10 mile(s):0
Sky conditions: clear
Temperature: 30.9 F (-0.6 C)
Windchill: 24 F (-4 C):1
Dew Point: 21.9 F (-5.6 C)
Relative Humidity: 68%
Pressure (altimeter): 30.33 in. Hg (1027 hPa)
ob: KBEH 050053Z AUTO 36005KT 10SM CLR M01/M06 A3033 RMK AO2 SLP281 T10061056
cycle: 1

Station Type Date Time Source
KBEH TAF UTC NOAA

Error!

Example: see airport list